Freeport, Indiana
Current Conditions -  °F | °C
As of 4:53 AM on Friday 19 Dec 2014 (Local Time) from KGEZ Reporting Station
Clear Clear  
Wind Chill: 14°   Ceiling: Unl
Heat Index: 22°   Visibility: 9mi
Dew Point: 18°   Wind: 6mph
Humidity: 85%   Direction: 340°NNW
Pressure: 30.25"   Gusts: NA
Location:  39.6624°N, 85.6838°W
Report Text: KGEZ 190953Z AUTO 34005KT 9SM CLR M06/M08 A3025 RMK AO2 SLP253 T10561078
Loading
Personal Weather Stations






























Interactive Weather Map New forecast layout! Learn more

10-Day Weather Forecast

Advertisements
Track Severe Weather on mobile